Wantagh, New York
Current Conditions -  °F | °C
As of 9:53 AM on Friday 19 Dec 2014 (Local Time) from KFRG Reporting Station
Overcast Overcast  
Wind Chill: 28°   Ceiling: 3800
Heat Index: 37°   Visibility: 10mi
Dew Point: 22°   Wind: 15mph
Humidity: 54%   Direction: 320°NW
Pressure: 30.04"   Gusts: 21mph
Location:  40.68°N, 73.51°W
Report Text: KFRG 191453Z 32013G18KT 10SM OVC038 03/M06 A3004 RMK AO2 SLP174 T00281056 51017
Loading
Personal Weather Stations






























Interactive Weather Map New forecast layout! Learn more

10-Day Weather Forecast

Advertisements
Track Severe Weather on mobile